Flight Track Log - Related Links

Times and Time Zones

All times are in EDT time to prevent confusion due to time zone crossing. See the N724AE flight status page for this flight to view local times or setup timezone preferences in your user account.

Time Position Orientation Groundspeed Altitude Reporting Facility
EDT Latitude Longitude Course Direction KTS MPH feet Rate Location/Type
02:09PM 37.2767 -93.4689 240° Southwest 196 226 7,500  Level Kansas City Center
02:10PM 37.2528 -93.5244 242° Southwest 185 213 10,100 2,293 Climbing Kansas City Center
02:11PM 37.2081 -93.5528 207° Southwest 181 208 12,200 2,177 Climbing Kansas City Center
02:12PM 37.1567 -93.5764 200° South 192 221 14,600 2,213 Climbing Kansas City Center
02:13PM 36.9736 -94.0127 247° West  Level FlightAware Approximate
02:13PM 37.1075 -93.6058 206° Southwest 194 223 16,700  Level Kansas City Center
02:14PM 36.9289 -94.1165 240° Southwest  Level FlightAware Approximate
02:14PM 37.0572 -93.6350 205° Southwest 198 228 18,900  Level Kansas City Center
02:15PM 37.0081 -93.6822 217° Southwest 221 254 19,800 829 Climbing Kansas City Center
02:16PM 36.9411 -93.7639 224° Southwest 273 314 20,600 836 Climbing Kansas City Center
02:17PM 36.8811 -93.8281 221° Southwest 308 354 21,500 1,113 Climbing Kansas City Center
02:18PM 36.8092 -93.8986 218° Southwest 322 371 22,900 1,452 Climbing Kansas City Center
02:19PM 36.7381 -93.9708 219° Southwest 327 376 24,500 1,820 Climbing Kansas City Center
02:20PM 36.6628 -94.0667 226° Southwest 324 373 26,600 1,869 Climbing Kansas City Center
02:21PM 36.6153 -94.1606 238° Southwest 320 368 28,300 1,707 Climbing Kansas City Center
02:22PM 36.5586 -94.2461 231° Southwest 318 366 30,100 1,536 Climbing Kansas City Center
02:23PM 36.5703 -94.3569 277° West 344 396 31,500 1,258 Climbing Kansas City Center
02:24PM 36.6083 -94.4678 293° West 349 402 32,700 1,131 Climbing Kansas City Center
02:25PM 36.6486 -94.5825 294° West 358 412 33,800 629 Climbing Kansas City Center
02:26PM 36.6925 -94.7022 295° West 373 429 34,000 97 Climbing Kansas City Center
02:27PM 36.7403 -94.8289 295° West 397 457 34,000  Level Kansas City Center
02:28PM 36.7706 -94.9725 285° West 371 427 34,000 49 Level Kansas City Center
02:29PM 36.7422 -95.0925 254° West 363 418 34,100  Climbing Kansas City Center
02:30PM 36.7139 -95.2119 254° West 362 417 34,000 -49 Descending Kansas City Center
02:31PM 36.6861 -95.3325 254° West 364 419 34,000  Level Kansas City Center
02:32PM 36.6519 -95.4489 250° West 362 417 34,000 190 Level Kansas City Center
02:33PM 36.6169 -95.5647 249° West 361 415 34,400 816 Climbing Kansas City Center
02:34PM 36.5769 -95.7017 250° West 365 420 35,700 787 Climbing Kansas City Center
02:35PM 36.5414 -95.8253 250° West 368 423 36,000 146 Climbing Kansas City Center
02:36PM 36.5064 -95.9431 250° West 366 421 36,000  Level Kansas City Center
02:38PM 36.4711 -96.0606 250° West 364 419 36,000  Level Kansas City Center
02:39PM 36.4364 -96.1772 250° West 362 417 36,000  Level Kansas City Center
02:40PM 36.4025 -96.2928 250° West 358 412 36,000  Level Kansas City Center
02:41PM 36.3678 -96.4072 249° West 355 409 36,000  Level Kansas City Center
02:42PM 36.3200 -96.5386 246° West 350 403 36,000  Level Kansas City Center
02:43PM 36.2747 -96.6444 242° Southwest 347 399 36,000  Level Kansas City Center
02:44PM 36.2597 -96.7617 261° West 359 413 36,000  Level Kansas City Center
02:45PM 36.2275 -96.8747 251° West 352 405 36,000  Level Kansas City Center
02:46PM 36.1942 -96.9844 249° West 346 398 36,000  Level Kansas City Center
02:47PM 36.1603 -97.0961 249° West 347 399 36,000  Level Kansas City Center
02:48PM 36.1261 -97.2056 249° West 345 397 36,000  Level Kansas City Center
02:49PM 36.0867 -97.3361 250° West 341 392 36,000  Level Kansas City Center
02:50PM 36.0528 -97.4436 249° West 339 390 36,000  Level Kansas City Center
02:51PM 36.0192 -97.5517 249° West 340 391 36,000  Level Kansas City Center
02:52PM 35.9858 -97.6589 249° West 338 389 36,000  Level Kansas City Center
02:53PM 35.9517 -97.7656 248° West 337 388 36,000  Level Kansas City Center
02:54PM 35.9189 -97.8706 249° West 333 383 36,000  Level Kansas City Center
02:55PM 35.8861 -97.9756 249° West 332 382 36,000  Level Kansas City Center
02:56PM 35.8450 -98.1039 248° West 332 382 36,000  Level Kansas City Center
02:57PM 35.8103 -98.2094 248° West 334 384 36,000  Level Fort Worth Center
02:58PM 35.7761 -98.3142 248° West 334 384 36,000  Level Fort Worth Center
02:59PM 35.7442 -98.4186 249° West 334 384 36,000  Level Fort Worth Center
03:00PM 35.7100 -98.5203 248° West 334 384 36,000  Level Fort Worth Center
03:01PM 35.6733 -98.6322 248° West 334 384 36,000  Level Fort Worth Center
03:02PM 35.6411 -98.7392 250° West 334 384 36,000  Level Fort Worth Center
03:03PM 35.6067 -98.8408 247° West 334 384 36,000  Level Fort Worth Center
03:04PM 35.5742 -98.9447 249° West 329 379 36,000  Level Fort Worth Center
03:05PM 35.5414 -99.0461 248° West 329 379 36,000  Level Fort Worth Center
03:06PM 35.5067 -99.1500 248° West 329 379 36,000  Level Fort Worth Center
03:07PM 35.4719 -99.2514 247° West 329 379 36,000  Level Fort Worth Center
03:08PM 35.4392 -99.3550 249° West 329 379 36,000  Level Fort Worth Center
03:09PM 35.4061 -99.4586 249° West 329 379 36,000  Level Fort Worth Center
03:10PM 35.3547 -99.5439 234° Southwest 323 372 36,000  Level Fort Worth Center
03:11PM 35.2856 -99.5625 192° South 291 335 36,000  Level Fort Worth Center
03:12PM 35.1944 -99.5222 160° South 275 316 36,000  Level Fort Worth Center
03:13PM 35.1100 -99.4567 148° Southeast 306 352 36,000  Level Fort Worth Center
03:14PM 35.0206 -99.4367 170° South 320 368 36,000  Level Fort Worth Center
03:15PM 34.9267 -99.4369 180° South 325 374 36,000  Level Fort Worth Center
03:16PM 34.8369 -99.4372 180° South 325 374 36,000  Level Fort Worth Center
03:17PM 34.7453 -99.4378 180° South 325 374 36,000  Level Fort Worth Center
03:18PM 34.6536 -99.4306 176° South 325 374 36,000  Level Fort Worth Center
03:19PM 34.5736 -99.3503 140° Southeast 331 381 36,000  Level Fort Worth Center
03:20PM 34.5042 -99.2456 129° Southeast 359 413 36,000 -793 Level Fort Worth Center
03:21PM 34.4306 -99.1356 129° Southeast 382 440 34,400 -1,686 Descending Fort Worth Center
03:22PM 34.3589 -99.0311 130° Southeast 401 461 32,600 807 Descending Fort Worth Center
03:23PM 34.2853 -98.9217 129° Southeast 413 475 36,000 -2,017 Climbing Fort Worth Center
03:24PM 34.2114 -98.8122 129° Southeast 413 475 28,600 -4,650 Descending Fort Worth Center
03:25PM 34.1458 -98.7108 128° Southeast 405 466 26,700 -2,050 Descending Fort Worth Center
03:26PM 34.0819 -98.6172 129° Southeast 390 449 24,500 -1,339 Descending Fort Worth Center
03:27PM 34.0203 -98.5236 128° Southeast 355 409 24,000 -248 Descending Fort Worth Center
03:28PM 33.9583 -98.4353 130° Southeast 350 403 24,000  Level Fort Worth Center
03:29PM 33.8944 -98.3394 129° Southeast 356 410 24,000  Level Fort Worth Center
03:30PM 33.8242 -98.2411 131° Southeast 361 415 24,000  Level Fort Worth Center
03:31PM 33.7622 -98.1456 128° Southeast 361 415 24,000 -605 Level Fort Worth Center
03:32PM 33.6958 -98.0525 131° Southeast 361 415 22,800 -1,850 Descending Fort Worth Center
03:33PM 33.6547 -97.9500 116° Southeast 348 400 20,300 -2,250 Descending Fort Worth Center
03:34PM 33.6217 -97.8375 109° East 348 400 18,300 -1,866 Descending Fort Worth Center
03:35PM 33.5739 -97.7725 131° Southeast 336 387 16,600 -2,033 Descending Fort Worth Center
03:36PM 33.4886 -97.6975 144° Southeast 323 372 14,200 -2,132 Descending Fort Worth Center
03:37PM 33.4133 -97.6325 144° Southeast 328 377 12,300 -1,613 Descending Fort Worth Center
03:38PM 33.3406 -97.5700 144° Southeast 328 377 11,000 -650 Descending Fort Worth Center
03:39PM 33.2758 -97.5178 146° Southeast 316 364 11,000  Level Fort Worth Center
03:40PM 33.2133 -97.4433 135° Southeast 299 344 11,000  Level Fort Worth Center
03:41PM 33.1611 -97.3811 135° Southeast 299 344 11,000  Level Fort Worth Center
03:42PM 33.0964 -97.3069 136° Southeast 294 338 11,000  Level Fort Worth Center
03:43PM 33.0442 -97.2475 136° Southeast 289 333 11,000 -350 Level Fort Worth Center
03:44PM 32.9919 -97.1806 133° Southeast 257 296 10,300 -1,400 Descending Fort Worth Center
03:45PM 32.9314 -97.1683 170° South 204 235 8,200 -1,160 Descending Fort Worth Center
03:46PM 32.8750 -97.1711 182° South 220 253 8,000 -100 Descending Fort Worth Center
03:47PM 32.8081 -97.1686 178° South 231 266 8,000 -100 Level Fort Worth Center
03:48PM 32.7372 -97.1689 180° South 231 266 7,800 -700 Descending Fort Worth Center
03:49PM 32.6850 -97.1692 180° South 236 272 6,600 -888 Descending Fort Worth Center
03:51PM 32.6000 -97.0833 140° Southeast 255 293 5,300 -789 Descending Dallas / Fort Worth TRACON
03:52PM 32.6500 -97.0167 48° Northeast 224 258 4,300 -645 Descending Dallas / Fort Worth TRACON
03:53PM 32.6833 -97.0167 360° North 167 192 4,000 -446 Descending Dallas / Fort Worth TRACON
03:54PM 32.7333 -97.0333 344° North 164 189 3,400 -700 Descending Dallas / Fort Worth TRACON
03:55PM 32.7833 -97.0333 360° North 162 186 2,600 -842 Descending Dallas / Fort Worth TRACON
03:56PM 32.8167 -97.0333 360° North 144 166 1,800 -800 Descending Dallas / Fort Worth TRACON
03:57PM 32.8500 -97.0333 360° North 133 153 1,000 -800 Descending Dallas / Fort Worth TRACON

Login

Don't have an account? Register now (free) for customized features, flight alerts, and more!